Time;durP1;ratioP1;P1;durP2;ratioP2;P2;SDS_P1;SDS_P2;PMS_P1;PMS_P2;Temp;Humidity;BMP_temperature;BMP_pressure;BME280_temperature;BME280_humidity;BME280_pressure;Samples;Min_cycle;Max_cycle;Signal;HPM_P1;HPM_P2
2023/09/09 00:00:51;;;;;;;2.20;1.97;;;18.00;99.90;;;;;;5011892;28;20410;-72
2023/09/09 00:03:18;;;;;;;1.77;1.67;;;18.10;99.90;;;;;;5013028;28;20942;-73
2023/09/09 00:05:45;;;;;;;2.80;2.10;;;18.00;99.90;;;;;;5013052;28;20824;-72
2023/09/09 00:08:11;;;;;;;2.43;2.33;;;18.00;99.90;;;;;;5013061;28;20415;-72
2023/09/09 00:10:37;;;;;;;1.63;1.53;;;18.00;99.90;;;;;;5013131;28;20184;-73
2023/09/09 00:13:04;;;;;;;5.90;3.50;;;18.00;99.90;;;;;;5028102;28;20250;-72
2023/09/09 00:15:34;;;;;;;2.03;1.90;;;18.00;99.90;;;;;;5014188;28;20441;-73
2023/09/09 00:18:04;;;;;;;3.10;2.90;;;17.90;99.90;;;;;;5016831;28;20454;-72
2023/09/09 00:20:32;;;;;;;2.57;2.13;;;17.80;99.90;;;;;;5016788;28;20771;-73
2023/09/09 00:22:57;;;;;;;3.00;2.50;;;17.80;99.90;;;;;;5016473;28;20406;-71
2023/09/09 00:25:23;;;;;;;2.83;2.10;;;17.80;99.90;;;;;;5016380;28;20453;-73
2023/09/09 00:27:49;;;;;;;2.20;1.83;;;17.70;99.90;;;;;;5016538;28;20179;-71
2023/09/09 00:30:14;;;;;;;4.10;3.10;;;17.70;99.90;;;;;;5016539;28;20190;-72
2023/09/09 00:32:40;;;;;;;3.13;2.90;;;17.80;99.90;;;;;;5016528;28;20643;-71
2023/09/09 00:35:06;;;;;;;4.67;3.03;;;17.80;99.90;;;;;;5016338;28;20678;-72
2023/09/09 00:37:31;;;;;;;3.87;3.23;;;17.80;99.90;;;;;;5016349;28;20199;-73
2023/09/09 00:39:57;;;;;;;4.10;3.07;;;17.80;99.90;;;;;;5016386;28;20946;-72
2023/09/09 00:42:23;;;;;;;3.80;2.00;;;17.80;99.90;;;;;;5016201;28;20176;-73
2023/09/09 00:44:48;;;;;;;5.83;3.43;;;17.80;99.90;;;;;;5015965;28;20187;-72
2023/09/09 00:47:14;;;;;;;2.50;1.60;;;17.80;99.90;;;;;;5016298;28;20187;-73
2023/09/09 00:49:39;;;;;;;2.50;2.30;;;17.80;99.90;;;;;;5016263;28;20176;-72
2023/09/09 00:52:05;;;;;;;3.10;2.77;;;17.80;99.90;;;;;;5015985;28;20714;-72
2023/09/09 00:54:32;;;;;;;2.20;2.10;;;17.80;99.90;;;;;;5015784;28;20533;-71
2023/09/09 00:57:00;;;;;;;2.07;1.57;;;17.80;99.90;;;;;;5015930;28;20817;-72
2023/09/09 00:59:29;;;;;;;2.90;2.30;;;17.80;99.90;;;;;;5016049;28;20411;-72
2023/09/09 01:01:56;;;;;;;2.70;2.50;;;17.80;99.90;;;;;;5014972;28;20415;-72
2023/09/09 01:04:22;;;;;;;4.10;2.50;;;17.80;99.90;;;;;;5015248;28;20454;-72
2023/09/09 01:06:48;;;;;;;1.90;1.80;;;17.80;99.90;;;;;;5031034;28;20454;-74
2023/09/09 01:09:15;;;;;;;7.67;4.03;;;17.70;99.90;;;;;;5015689;28;20236;-71
2023/09/09 01:11:41;;;;;;;2.97;2.70;;;17.70;99.90;;;;;;5015028;28;20414;-72
2023/09/09 01:14:06;;;;;;;3.40;2.97;;;17.60;99.90;;;;;;5015383;28;20437;-73
2023/09/09 01:16:32;;;;;;;7.50;2.57;;;17.60;99.90;;;;;;5015665;28;20250;-73
2023/09/09 01:18:58;;;;;;;4.23;3.07;;;17.60;99.90;;;;;;5016163;28;20171;-72
2023/09/09 01:21:28;;;;;;;4.67;4.17;;;17.60;99.90;;;;;;5015498;28;20242;-72
2023/09/09 01:23:54;;;;;;;2.70;2.30;;;17.70;99.90;;;;;;5014932;28;20467;-71
2023/09/09 01:26:20;;;;;;;3.20;2.20;;;17.60;99.90;;;;;;5015315;28;20434;-71
2023/09/09 01:28:46;;;;;;;2.30;2.17;;;17.60;99.90;;;;;;5014671;28;20261;-69
2023/09/09 01:31:12;;;;;;;2.13;2.00;;;17.60;99.90;;;;;;5015867;28;20172;-69
2023/09/09 01:33:38;;;;;;;3.80;3.33;;;17.90;99.90;;;;;;5015336;28;20409;-72
2023/09/09 01:36:04;;;;;;;5.37;2.47;;;17.70;99.90;;;;;;5015434;28;20765;-69
2023/09/09 01:38:34;;;;;;;1.87;1.77;;;17.80;99.90;;;;;;5015528;28;20211;-70
2023/09/09 01:41:00;;;;;;;2.70;2.10;;;17.90;99.90;;;;;;5015826;28;20482;-72
2023/09/09 01:43:26;;;;;;;2.93;2.10;;;18.00;99.90;;;;;;5015462;28;20457;-71
2023/09/09 01:45:52;;;;;;;1.70;1.60;;;18.10;99.90;;;;;;5015804;28;20435;-71
2023/09/09 01:48:17;;;;;;;3.83;2.17;;;18.20;99.90;;;;;;5015281;28;20181;-69
2023/09/09 01:50:46;;;;;;;2.97;2.40;;;18.30;99.90;;;;;;5015264;28;20177;-69
2023/09/09 01:53:12;;;;;;;2.77;2.53;;;18.30;99.90;;;;;;5015482;28;20182;-71
2023/09/09 01:55:37;;;;;;;1.97;1.87;;;18.40;99.90;;;;;;5015357;28;20765;-72
2023/09/09 01:58:03;;;;;;;2.10;2.00;;;18.50;99.90;;;;;;5015056;28;20209;-71
2023/09/09 02:00:30;;;;;;;2.90;1.87;;;18.60;99.90;;;;;;5015615;28;20637;-72
2023/09/09 02:02:56;;;;;;;3.20;2.67;;;18.70;99.90;;;;;;5014787;28;20167;-76
2023/09/09 02:05:22;;;;;;;4.33;3.53;;;18.70;99.90;;;;;;5014651;28;20436;-74
2023/09/09 02:07:47;;;;;;;2.13;2.03;;;18.60;99.90;;;;;;5014683;28;20178;-74
2023/09/09 02:10:13;;;;;;;2.50;1.97;;;18.50;99.90;;;;;;5014890;28;20408;-74
2023/09/09 02:12:38;;;;;;;3.17;2.87;;;18.30;99.90;;;;;;5014777;28;20236;-73
2023/09/09 02:15:04;;;;;;;3.70;2.70;;;18.10;99.90;;;;;;5014860;28;20218;-73
2023/09/09 02:17:30;;;;;;;3.97;2.33;;;18.00;99.90;;;;;;5015027;28;20203;-72
2023/09/09 02:19:56;;;;;;;1.90;1.80;;;17.80;99.90;;;;;;5014511;28;20811;-75
2023/09/09 02:22:23;;;;;;;2.53;2.33;;;17.70;99.90;;;;;;5014674;28;20622;-73
2023/09/09 02:24:57;;;;;;;2.73;2.53;;;17.60;99.90;;;;;;5014095;28;20451;-75
2023/09/09 02:27:24;;;;;;;2.10;2.00;;;17.50;99.90;;;;;;5014813;28;20418;-74
2023/09/09 02:29:50;;;;;;;1.67;1.57;;;17.50;99.90;;;;;;5014959;28;20807;-74
2023/09/09 02:32:19;;;;;;;2.07;1.90;;;17.50;99.90;;;;;;5014262;28;20453;-74
2023/09/09 02:34:45;;;;;;;3.40;3.10;;;17.60;99.90;;;;;;5014217;28;20430;-74
2023/09/09 02:37:22;;;;;;;3.30;2.60;;;17.50;99.90;;;;;;5014375;28;20473;-74
2023/09/09 02:39:49;;;;;;;2.20;2.00;;;17.50;99.90;;;;;;5014072;28;20403;-72
2023/09/09 02:42:16;;;;;;;3.70;2.17;;;17.50;99.90;;;;;;5014531;28;20421;-74
2023/09/09 02:44:43;;;;;;;5.30;2.80;;;17.50;99.90;;;;;;5014008;28;20447;-74
